Time;durP1;ratioP1;P1;durP2;ratioP2;P2;SDS_P1;SDS_P2;PMS_P1;PMS_P2;Temp;Humidity;BMP_temperature;BMP_pressure;BME280_temperature;BME280_humidity;BME280_pressure;Samples;Min_cycle;Max_cycle;Signal;HPM_P1;HPM_P2
2021/11/29 00:02:04;;;;;;;46.65;43.10;;;-0.80;99.90;;;;;;4194332;28;20048;-52
2021/11/29 00:04:06;;;;;;;41.95;38.90;;;-0.80;99.90;;;;;;4192537;28;20045;-53
2021/11/29 00:06:08;;;;;;;44.33;40.75;;;-0.90;99.90;;;;;;4194354;28;20044;-52
2021/11/29 00:08:12;;;;;;;39.97;37.38;;;-0.90;99.90;;;;;;4189908;28;20504;-53
2021/11/29 00:10:14;;;;;;;43.05;39.80;;;-0.80;99.90;;;;;;4189969;28;20087;-54
2021/11/29 00:12:16;;;;;;;42.10;39.30;;;-0.60;99.90;;;;;;4191961;28;20040;-53
2021/11/29 00:14:19;;;;;;;39.50;37.03;;;-0.60;99.90;;;;;;4194698;28;20511;-54
2021/11/29 00:16:21;;;;;;;39.08;36.63;;;-0.60;99.90;;;;;;4193319;28;20044;-52
2021/11/29 00:18:23;;;;;;;38.28;35.80;;;-0.70;99.90;;;;;;4193783;28;20055;-54
2021/11/29 00:20:25;;;;;;;38.42;36.33;;;-0.70;99.90;;;;;;4193982;28;20028;-54
2021/11/29 00:22:27;;;;;;;40.45;37.72;;;-0.60;99.90;;;;;;4194642;28;20033;-54
2021/11/29 00:24:29;;;;;;;39.90;37.40;;;-0.70;99.90;;;;;;4191870;28;20037;-53
2021/11/29 00:26:32;;;;;;;41.05;38.33;;;-0.70;99.90;;;;;;4194681;28;20107;-53
2021/11/29 00:28:34;;;;;;;38.70;35.45;;;-0.80;99.90;;;;;;4193358;28;20048;-53
2021/11/29 00:30:38;;;;;;;41.28;38.78;;;-0.80;99.90;;;;;;4192184;28;20033;-53
2021/11/29 00:32:41;;;;;;;44.65;41.15;;;-0.90;99.90;;;;;;4188949;28;20041;-53
2021/11/29 00:34:43;;;;;;;44.28;40.97;;;-0.90;99.90;;;;;;4193943;28;20037;-53
2021/11/29 00:36:45;;;;;;;43.20;39.95;;;-0.90;99.90;;;;;;4193433;28;20067;-53
2021/11/29 00:38:48;;;;;;;39.80;37.00;;;-1.00;99.90;;;;;;4192378;28;20037;-54
2021/11/29 00:40:50;;;;;;;40.00;37.38;;;-1.00;99.90;;;;;;4193462;28;20599;-53
2021/11/29 00:42:52;;;;;;;38.67;36.38;;;-1.00;99.90;;;;;;4187912;28;20033;-53
2021/11/29 00:44:54;;;;;;;39.15;36.85;;;-0.90;99.90;;;;;;4193472;28;20074;-53
2021/11/29 00:46:57;;;;;;;37.50;35.30;;;-0.90;99.90;;;;;;4183249;28;20048;-53
2021/11/29 00:48:59;;;;;;;36.08;33.63;;;-0.70;99.90;;;;;;4190643;28;20801;-53
2021/11/29 00:51:01;;;;;;;38.88;36.45;;;-0.70;99.90;;;;;;4192879;28;20048;-53
2021/11/29 00:53:08;;;;;;;36.67;34.47;;;-0.70;99.90;;;;;;4191903;28;20447;-54
2021/11/29 00:55:11;;;;;;;35.97;34.00;;;-0.70;99.90;;;;;;4173911;28;20469;-53
2021/11/29 00:57:13;;;;;;;36.22;34.25;;;-0.70;99.90;;;;;;4187016;28;20036;-54
2021/11/29 00:59:15;;;;;;;33.08;31.15;;;-0.70;99.90;;;;;;4192775;28;20040;-53
2021/11/29 01:01:17;;;;;;;35.42;33.10;;;-0.80;99.90;;;;;;4186992;28;21493;-53
2021/11/29 01:03:20;;;;;;;36.03;33.92;;;-0.90;99.90;;;;;;4192133;28;20045;-53
2021/11/29 01:05:22;;;;;;;34.40;32.47;;;-1.00;99.90;;;;;;4192128;28;20032;-53
2021/11/29 01:07:25;;;;;;;33.50;32.00;;;-0.90;99.90;;;;;;4191240;28;20504;-52
2021/11/29 01:09:27;;;;;;;36.78;34.90;;;-0.90;99.90;;;;;;4193300;28;20037;-53
2021/11/29 01:11:29;;;;;;;43.60;40.55;;;-0.80;99.90;;;;;;4192189;28;20039;-53
2021/11/29 01:13:32;;;;;;;59.65;47.03;;;-0.90;99.90;;;;;;4193612;28;20040;-53
2021/11/29 01:15:36;;;;;;;71.93;50.22;;;-0.90;99.90;;;;;;4193745;28;20512;-53
2021/11/29 01:17:39;;;;;;;274.65;62.03;;;-1.00;99.90;;;;;;4158589;28;20033;-53
2021/11/29 01:19:41;;;;;;;163.60;58.38;;;-1.00;99.90;;;;;;4193447;28;20611;-53
2021/11/29 01:21:44;;;;;;;182.82;51.45;;;-1.00;99.90;;;;;;4193394;28;20044;-53
2021/11/29 01:23:46;;;;;;;232.98;50.22;;;-1.10;99.90;;;;;;4193906;28;20037;-53
2021/11/29 01:25:50;;;;;;;83.82;43.10;;;-1.20;99.90;;;;;;4192540;28;20041;-54
2021/11/29 01:27:52;;;;;;;379.40;48.78;;;-1.10;99.90;;;;;;4192628;28;20107;-53
2021/11/29 01:29:54;;;;;;;43.70;40.25;;;-1.10;99.90;;;;;;4187117;28;20037;-53
2021/11/29 01:31:56;;;;;;;46.00;42.42;;;-1.20;99.90;;;;;;4191731;28;20504;-53
2021/11/29 01:33:58;;;;;;;64.40;45.25;;;-1.10;99.90;;;;;;4191920;28;20041;-53
2021/11/29 01:36:01;;;;;;;42.28;39.42;;;-1.10;99.90;;;;;;4192812;28;20613;-53
2021/11/29 01:38:04;;;;;;;42.67;39.72;;;-1.00;99.90;;;;;;4193283;28;20436;-53
2021/11/29 01:40:08;;;;;;;41.28;38.63;;;-1.00;99.90;;;;;;4193216;28;20063;-53
2021/11/29 01:42:12;;;;;;;36.38;33.80;;;-0.90;99.90;;;;;;4192759;28;20029;-53
2021/11/29 01:44:14;;;;;;;39.15;36.88;;;-1.00;99.90;;;;;;4191930;28;20040;-54
2021/11/29 01:46:16;;;;;;;40.65;38.15;;;-1.00;99.90;;;;;;4192943;28;20041;-53
2021/11/29 01:48:19;;;;;;;42.05;39.13;;;-1.10;99.90;;;;;;4191120;28;20404;-53
2021/11/29 01:50:22;;;;;;;40.80;38.22;;;-1.10;99.90;;;;;;4191893;28;20499;-52
2021/11/29 01:52:24;;;;;;;;;;;-1.10;99.90;;;;;;4192751;28;20075;-53
2021/11/29 01:54:26;;;;;;;357.55;56.33;;;-1.10;99.90;;;;;;4193551;28;19959;-53
2021/11/29 01:56:29;;;;;;;360.58;54.28;;;-1.20;99.90;;;;;;4191723;28;20036;-53
2021/11/29 01:58:33;;;;;;;180.95;47.50;;;-1.30;99.90;;;;;;4192280;28;20250;-54
2021/11/29 02:00:42;;;;;;;81.05;41.58;;;-1.30;99.90;;;;;;4190431;28;20067;-54
2021/11/29 02:02:51;;;;;;;202.73;45.47;;;-1.30;99.90;;;;;;4178750;28;20117;-53
2021/11/29 02:04:58;;;;;;;219.55;42.38;;;-1.30;99.90;;;;;;4190975;28;20427;-52
2021/11/29 02:07:00;;;;;;;208.20;43.00;;;-1.20;99.90;;;;;;4191962;28;20041;-54
2021/11/29 02:09:04;;;;;;;162.32;41.92;;;-1.30;99.90;;;;;;4191308;28;20086;-53
2021/11/29 02:11:07;;;;;;;180.40;41.53;;;-1.40;99.90;;;;;;4193437;28;20052;-53
2021/11/29 02:13:10;;;;;;;122.97;37.65;;;-1.40;99.90;;;;;;4190503;28;20045;-53
2021/11/29 02:15:13;;;;;;;110.70;39.88;;;-1.40;99.90;;;;;;4191876;28;20454;-54
2021/11/29 02:17:17;;;;;;;79.75;37.35;;;-1.40;99.90;;;;;;4190577;28;20107;-54
2021/11/29 02:19:20;;;;;;;120.47;38.97;;;-1.20;99.90;;;;;;4192727;28;20048;-52
2021/11/29 02:21:25;;;;;;;113.75;37.85;;;-1.20;99.90;;;;;;4192828;28;20037;-53
2021/11/29 02:23:27;;;;;;;78.28;38.70;;;-1.40;99.90;;;;;;4193655;28;20043;-53
2021/11/29 02:25:29;;;;;;;58.42;42.42;;;-1.30;99.90;;;;;;4189931;28;20051;-53
2021/11/29 02:27:32;;;;;;;46.60;41.40;;;-1.40;99.90;;;;;;4191676;28;20041;-54
2021/11/29 02:29:36;;;;;;;41.25;38.50;;;-1.40;99.90;;;;;;4190715;28;20087;-52
2021/11/29 02:31:44;;;;;;;247.55;43.17;;;-1.20;99.90;;;;;;4176991;28;20052;-53
2021/11/29 02:33:47;;;;;;;139.77;41.17;;;-1.20;99.90;;;;;;4190312;28;20446;-53
2021/11/29 02:35:49;;;;;;;92.70;35.85;;;-1.20;99.90;;;;;;4193496;28;20064;-54
2021/11/29 02:37:52;;;;;;;85.00;36.22;;;-1.30;99.90;;;;;;4190574;28;20073;-53
2021/11/29 02:39:53;;;;;;;;;;;-1.30;99.90;;;;;;4190982;28;20060;-53
2021/11/29 02:41:58;;;;;;;62.92;38.47;;;-1.30;99.90;;;;;;4188719;28;19925;-54
2021/11/29 02:44:00;;;;;;;114.80;41.63;;;-1.30;99.90;;;;;;4192922;28;20068;-52
2021/11/29 02:46:03;;;;;;;48.33;38.65;;;-1.30;99.90;;;;;;4191861;28;20060;-54
2021/11/29 02:48:06;;;;;;;195.65;45.30;;;-1.20;99.90;;;;;;4172950;28;20127;-53
2021/11/29 02:50:08;;;;;;;179.77;44.75;;;-1.20;99.90;;;;;;4191956;28;20488;-53
2021/11/29 02:52:13;;;;;;;193.00;45.33;;;-1.20;99.90;;;;;;4182152;28;20106;-53
2021/11/29 02:54:25;;;;;;;117.88;43.47;;;-1.20;99.90;;;;;;4192001;28;20028;-53
2021/11/29 02:56:28;;;;;;;106.15;44.65;;;-1.10;99.90;;;;;;4183552;28;20103;-53
2021/11/29 02:58:30;;;;;;;;;;;-1.10;99.90;;;;;;4191358;28;20527;-54
2021/11/29 03:00:33;;;;;;;445.25;54.17;;;-1.10;99.90;;;;;;4196013;28;19935;-54
2021/11/29 03:02:36;;;;;;;190.85;42.88;;;-1.10;99.90;;;;;;4192900;28;20028;-54
2021/11/29 03:04:43;;;;;;;353.58;49.70;;;-1.10;99.90;;;;;;4196223;28;20075;-53
2021/11/29 03:06:45;;;;;;;208.05;46.17;;;-1.10;99.90;;;;;;4194941;28;20472;-53
2021/11/29 03:08:48;;;;;;;132.88;42.65;;;-1.00;99.90;;;;;;4194888;28;20037;-53
2021/11/29 03:10:50;;;;;;;;;;;-1.00;99.90;;;;;;4193224;28;20036;-53
2021/11/29 03:12:52;;;;;;;51.00;39.45;;;-1.00;99.90;;;;;;4195195;28;19974;-54
2021/11/29 03:14:54;;;;;;;40.17;37.45;;;-1.00;99.90;;;;;;4192196;28;20137;-53
2021/11/29 03:16:56;;;;;;;48.38;40.10;;;-1.00;99.90;;;;;;4196727;28;20032;-53
2021/11/29 03:18:59;;;;;;;104.95;40.17;;;-1.00;99.90;;;;;;4193795;28;20036;-54
2021/11/29 03:21:01;;;;;;;44.05;39.65;;;-1.00;99.90;;;;;;4187728;28;20438;-54
2021/11/29 03:23:03;;;;;;;;;;;-0.90;99.90;;;;;;4193559;28;20071;-53
2021/11/29 03:25:07;;;;;;;62.65;39.03;;;-0.90;99.90;;;;;;4188235;28;19921;-54
2021/11/29 03:27:09;;;;;;;81.57;39.08;;;-0.90;99.90;;;;;;4188699;28;20105;-53
2021/11/29 03:29:14;;;;;;;42.40;38.47;;;-0.90;99.90;;;;;;4195571;28;20040;-53
2021/11/29 03:31:17;;;;;;;94.47;40.13;;;-0.90;99.90;;;;;;4192921;28;20048;-53
2021/11/29 03:33:19;;;;;;;;;;;-0.80;99.90;;;;;;4194532;28;20155;-53
2021/11/29 03:35:21;;;;;;;42.58;38.85;;;-0.90;99.90;;;;;;4195825;28;19920;-53
2021/11/29 03:37:24;;;;;;;60.83;42.25;;;-0.80;99.90;;;;;;4193889;28;20028;-53
2021/11/29 03:39:28;;;;;;;227.93;46.63;;;-0.90;99.90;;;;;;4194681;28;20114;-54
2021/11/29 03:41:31;;;;;;;46.45;41.78;;;-0.90;99.90;;;;;;4193419;28;20091;-53
2021/11/29 03:43:33;;;;;;;54.83;40.33;;;-0.90;99.90;;;;;;4194332;28;20041;-53
2021/11/29 03:45:35;;;;;;;359.98;54.10;;;-0.80;99.90;;;;;;4194922;28;20446;-54
2021/11/29 03:47:37;;;;;;;114.07;44.10;;;-0.90;99.90;;;;;;4193575;28;20086;-54
2021/11/29 03:49:39;;;;;;;354.60;52.97;;;-0.80;99.90;;;;;;4194652;28;20044;-54
2021/11/29 03:51:41;;;;;;;314.85;52.33;;;-0.80;99.90;;;;;;4193563;28;20045;-54
2021/11/29 03:53:43;;;;;;;222.00;47.75;;;-0.80;99.90;;;;;;4195268;28;20045;-54
2021/11/29 03:55:46;;;;;;;44.80;41.35;;;-0.90;99.90;;;;;;4192220;28;21572;-55
2021/11/29 03:57:49;;;;;;;252.25;46.50;;;-0.90;99.90;;;;;;4192954;28;20044;-54
2021/11/29 03:59:51;;;;;;;;;;;-0.80;99.90;;;;;;4189459;28;20082;-53
2021/11/29 04:01:53;;;;;;;42.33;39.30;;;-0.80;99.90;;;;;;4192489;28;19924;-54
2021/11/29 04:03:55;;;;;;;55.50;43.75;;;-0.80;99.90;;;;;;4194920;28;20032;-54
2021/11/29 04:05:57;;;;;;;38.58;35.83;;;-0.80;99.90;;;;;;4194171;28;20557;-54
2021/11/29 04:08:00;;;;;;;40.45;38.08;;;-0.80;99.90;;;;;;4194896;28;20684;-53
2021/11/29 04:10:03;;;;;;;38.88;36.42;;;-0.80;99.90;;;;;;4191075;28;20048;-54
2021/11/29 04:12:06;;;;;;;37.15;35.17;;;-0.80;99.90;;;;;;4194194;28;20060;-54
2021/11/29 04:14:08;;;;;;;37.60;35.33;;;-0.80;99.90;;;;;;4192428;28;20748;-53
2021/11/29 04:16:13;;;;;;;39.58;36.85;;;-0.80;99.90;;;;;;4194100;28;20053;-52
2021/11/29 04:18:15;;;;;;;39.25;36.33;;;-0.90;99.90;;;;;;4193558;28;20040;-54
2021/11/29 04:20:18;;;;;;;39.95;37.08;;;-0.80;99.90;;;;;;4188258;28;20040;-54
2021/11/29 04:22:20;;;;;;;39.28;36.58;;;-0.90;99.90;;;;;;4192696;28;20039;-53
2021/11/29 04:24:24;;;;;;;37.53;35.08;;;-0.80;99.90;;;;;;4179856;28;20048;-54
2021/11/29 04:26:28;;;;;;;38.83;36.72;;;-0.80;99.90;;;;;;4191860;28;20090;-53
2021/11/29 04:28:31;;;;;;;37.28;34.97;;;-0.80;99.90;;;;;;4194141;28;20040;-53
2021/11/29 04:30:34;;;;;;;34.13;32.47;;;-0.80;99.90;;;;;;4193462;28;20496;-52
2021/11/29 04:32:37;;;;;;;37.30;35.65;;;-0.80;99.90;;;;;;4193905;28;20052;-53
2021/11/29 04:34:39;;;;;;;35.55;33.85;;;-0.80;99.90;;;;;;4194521;28;20567;-53
2021/11/29 04:36:42;;;;;;;34.92;33.38;;;-0.70;99.90;;;;;;4193039;28;20484;-52
2021/11/29 04:38:44;;;;;;;35.40;33.50;;;-0.70;99.90;;;;;;4193571;28;20036;-52
2021/11/29 04:40:46;;;;;;;31.90;30.73;;;-0.60;99.90;;;;;;4190026;28;20056;-53
2021/11/29 04:42:49;;;;;;;32.22;30.52;;;-0.60;99.90;;;;;;4193652;28;20403;-54
2021/11/29 04:44:51;;;;;;;34.72;32.80;;;-0.60;99.90;;;;;;4194293;28;20056;-53
2021/11/29 04:46:54;;;;;;;37.47;35.75;;;-0.60;99.90;;;;;;4191170;28;20083;-54
2021/11/29 04:48:56;;;;;;;36.17;34.13;;;-0.60;99.90;;;;;;4184274;28;20056;-53
2021/11/29 04:50:58;;;;;;;34.85;32.92;;;-0.60;99.90;;;;;;4191850;28;20090;-54
2021/11/29 04:53:00;;;;;;;35.30;32.97;;;-0.60;99.90;;;;;;4192173;28;20072;-54
2021/11/29 04:55:04;;;;;;;42.85;36.80;;;-0.60;99.90;;;;;;4191949;28;20568;-54
2021/11/29 04:57:06;;;;;;;39.20;36.85;;;-0.70;99.90;;;;;;4190957;28;20037;-54
2021/11/29 04:59:09;;;;;;;38.63;36.40;;;-0.70;99.90;;;;;;4190680;28;20025;-54
2021/11/29 05:01:13;;;;;;;38.50;36.30;;;-0.70;99.90;;;;;;4192279;28;20037;-54
2021/11/29 05:03:15;;;;;;;38.60;36.50;;;-0.60;99.90;;;;;;4191074;28;20103;-53
2021/11/29 05:05:18;;;;;;;39.55;37.47;;;-0.50;99.90;;;;;;4182554;28;20037;-54
2021/11/29 05:07:20;;;;;;;38.13;36.00;;;-0.60;99.90;;;;;;4191970;28;20048;-53
2021/11/29 05:09:22;;;;;;;37.70;35.60;;;-0.60;99.90;;;;;;4185627;28;20037;-54
2021/11/29 05:11:24;;;;;;;37.78;35.88;;;-0.60;99.90;;;;;;4193799;28;20040;-54
2021/11/29 05:13:27;;;;;;;39.85;37.58;;;-0.60;99.90;;;;;;4175338;28;20045;-54
2021/11/29 05:15:29;;;;;;;39.35;37.30;;;-0.70;99.90;;;;;;4192994;28;20044;-53
2021/11/29 05:17:31;;;;;;;42.22;38.65;;;-0.70;99.90;;;;;;4192473;28;20032;-53
2021/11/29 05:19:33;;;;;;;;;;;-0.70;99.90;;;;;;4187400;28;20036;-54
2021/11/29 05:21:36;;;;;;;57.55;38.75;;;-0.70;99.90;;;;;;4186684;28;19921;-52
2021/11/29 05:23:38;;;;;;;56.78;43.00;;;-0.80;99.90;;;;;;4191178;28;20062;-54
2021/11/29 05:25:40;;;;;;;39.00;36.53;;;-0.80;99.90;;;;;;4192945;28;20059;-53
2021/11/29 05:27:42;;;;;;;43.88;41.08;;;-0.80;99.90;;;;;;4193179;28;20423;-54
2021/11/29 05:29:45;;;;;;;71.30;43.13;;;-0.80;99.90;;;;;;4193575;28;20037;-54
2021/11/29 05:31:47;;;;;;;40.72;37.85;;;-0.80;99.90;;;;;;4191327;28;20051;-53
2021/11/29 05:33:49;;;;;;;39.72;37.55;;;-0.80;99.90;;;;;;4194800;28;20036;-53
2021/11/29 05:35:51;;;;;;;36.03;34.05;;;-0.70;99.90;;;;;;4192507;28;20037;-54
2021/11/29 05:37:53;;;;;;;38.60;36.17;;;-0.70;99.90;;;;;;4192885;28;20086;-53
2021/11/29 05:39:56;;;;;;;36.40;34.35;;;-0.60;99.90;;;;;;4192384;28;20506;-54
2021/11/29 05:42:17;;;;;;;36.63;34.53;;;-0.70;99.90;;;;;;4192519;28;20059;-53
2021/11/29 05:44:19;;;;;;;35.75;34.13;;;-0.70;99.90;;;;;;4187958;28;20496;-54
2021/11/29 05:46:22;;;;;;;35.95;33.88;;;-0.70;99.90;;;;;;4193287;28;20044;-53
2021/11/29 05:48:25;;;;;;;34.47;33.05;;;-0.70;99.90;;;;;;4190205;28;20148;-53
2021/11/29 05:50:28;;;;;;;35.05;33.75;;;-0.70;99.90;;;;;;4192596;28;20399;-54
2021/11/29 05:52:30;;;;;;;33.35;31.90;;;-0.60;99.90;;;;;;4192966;28;20086;-53
2021/11/29 05:54:32;;;;;;;34.72;33.15;;;-0.60;99.90;;;;;;4186219;28;20076;-53
2021/11/29 05:56:34;;;;;;;34.50;33.30;;;-0.60;99.90;;;;;;4192665;28;20047;-54
2021/11/29 05:58:36;;;;;;;31.65;30.30;;;-0.60;99.90;;;;;;4192906;28;20045;-54
2021/11/29 06:00:39;;;;;;;33.72;32.10;;;-0.60;99.90;;;;;;4192401;28;20516;-53
2021/11/29 06:02:44;;;;;;;38.53;36.28;;;-0.60;99.90;;;;;;4191977;28;20037;-53
2021/11/29 06:04:46;;;;;;;;;;;-0.60;99.90;;;;;;4193337;28;20048;-53
2021/11/29 06:06:48;;;;;;;36.55;34.40;;;-0.60;99.90;;;;;;4192451;28;19920;-54
2021/11/29 06:08:50;;;;;;;40.60;38.20;;;-0.70;99.90;;;;;;4192815;28;20079;-54
2021/11/29 06:10:52;;;;;;;41.63;39.10;;;-0.70;99.90;;;;;;4192571;28;20139;-53
2021/11/29 06:12:55;;;;;;;39.78;37.63;;;-0.80;99.90;;;;;;4183462;28;20045;-54
2021/11/29 06:14:57;;;;;;;37.58;35.55;;;-0.70;99.90;;;;;;4172818;28;20087;-53
2021/11/29 06:16:59;;;;;;;35.83;33.78;;;-0.70;99.90;;;;;;4188635;28;20029;-54
2021/11/29 06:19:02;;;;;;;39.13;36.85;;;-0.70;99.90;;;;;;4188835;28;20115;-53
2021/11/29 06:21:04;;;;;;;39.78;37.58;;;-0.80;99.90;;;;;;4192070;28;20095;-54
2021/11/29 06:23:06;;;;;;;38.70;36.45;;;-0.80;99.90;;;;;;4191410;28;20430;-54
2021/11/29 06:25:09;;;;;;;38.95;36.78;;;-0.80;99.90;;;;;;4190683;28;20036;-50
2021/11/29 06:27:12;;;;;;;37.10;34.63;;;-0.90;99.90;;;;;;4192388;28;20040;-51
2021/11/29 06:29:14;;;;;;;41.03;38.40;;;-0.90;99.90;;;;;;4191174;28;20033;-52
2021/11/29 06:31:17;;;;;;;46.08;42.65;;;-0.90;99.90;;;;;;4192294;28;20049;-51
2021/11/29 06:33:19;;;;;;;42.60;39.80;;;-0.90;99.90;;;;;;4194897;28;20435;-49
2021/11/29 06:35:21;;;;;;;43.00;40.05;;;-0.90;99.90;;;;;;4195466;28;20514;-51
2021/11/29 06:37:26;;;;;;;42.20;39.42;;;-1.00;99.90;;;;;;4195375;28;20044;-51
2021/11/29 06:39:30;;;;;;;42.63;39.83;;;-1.00;99.90;;;;;;4196504;28;20048;-51
2021/11/29 06:41:32;;;;;;;45.38;42.17;;;-1.00;99.90;;;;;;4182769;28;20080;-51
2021/11/29 06:43:34;;;;;;;40.42;38.13;;;-1.10;99.90;;;;;;4196100;28;20033;-49
2021/11/29 06:45:36;;;;;;;39.88;37.55;;;-1.00;99.90;;;;;;4195955;28;20056;-51
2021/11/29 06:47:41;;;;;;;43.30;40.30;;;-1.00;99.90;;;;;;4192799;28;20037;-48
2021/11/29 06:49:43;;;;;;;40.78;37.95;;;-0.90;99.90;;;;;;4171984;28;20064;-50
2021/11/29 06:51:46;;;;;;;39.72;37.35;;;-0.90;99.90;;;;;;4193471;28;20044;-50
2021/11/29 06:53:48;;;;;;;37.33;35.63;;;-1.00;99.90;;;;;;4171521;28;20404;-52
2021/11/29 06:55:51;;;;;;;39.35;37.08;;;-0.80;99.90;;;;;;4193838;28;20086;-50
2021/11/29 06:57:53;;;;;;;37.17;35.25;;;-0.80;99.90;;;;;;4195763;28;20724;-49
2021/11/29 06:59:55;;;;;;;41.47;38.42;;;-0.70;99.90;;;;;;4193614;28;20036;-51
2021/11/29 07:01:58;;;;;;;40.45;37.75;;;-0.70;99.90;;;;;;4196140;28;20048;-50
2021/11/29 07:04:01;;;;;;;42.38;39.97;;;-0.70;99.90;;;;;;4194644;28;20127;-49
2021/11/29 07:06:03;;;;;;;47.90;44.47;;;-0.70;99.90;;;;;;4178344;28;20053;-51
2021/11/29 07:08:06;;;;;;;46.88;43.58;;;-0.70;99.90;;;;;;4194693;28;20059;-49
2021/11/29 07:10:09;;;;;;;43.33;40.63;;;-0.80;99.90;;;;;;4195722;28;20514;-48
2021/11/29 07:12:14;;;;;;;39.83;37.55;;;-0.80;99.90;;;;;;4195933;28;20314;-52
2021/11/29 07:14:16;;;;;;;44.20;41.38;;;-0.80;99.90;;;;;;4177506;28;20075;-50
2021/11/29 07:16:19;;;;;;;41.70;39.03;;;-0.80;99.90;;;;;;4194550;28;20064;-49
2021/11/29 07:18:21;;;;;;;59.08;52.90;;;-0.80;99.90;;;;;;4194569;28;20033;-50
2021/11/29 07:20:23;;;;;;;45.83;42.20;;;-0.80;99.90;;;;;;4179082;28;20630;-51
2021/11/29 07:22:25;;;;;;;48.95;44.63;;;-0.80;99.90;;;;;;4194974;28;20064;-50
2021/11/29 07:24:27;;;;;;;51.53;47.53;;;-0.80;99.90;;;;;;4195669;28;20024;-50
2021/11/29 07:26:30;;;;;;;42.25;39.75;;;-0.80;99.90;;;;;;4194348;28;20060;-49
2021/11/29 07:28:32;;;;;;;42.25;39.75;;;-0.80;99.90;;;;;;4193450;28;20044;-50
2021/11/29 07:30:34;;;;;;;42.70;39.78;;;-0.80;99.90;;;;;;4195275;28;20584;-49
2021/11/29 07:32:37;;;;;;;43.28;40.38;;;-0.80;99.90;;;;;;4194839;28;20082;-50
2021/11/29 07:34:38;;;;;;;;;;;-0.80;99.90;;;;;;4194577;28;20036;-49
2021/11/29 07:36:41;;;;;;;34.05;31.83;;;-0.80;99.90;;;;;;4195797;28;19920;-50
2021/11/29 07:38:43;;;;;;;39.30;37.22;;;-0.80;99.90;;;;;;4195148;28;20044;-50
2021/11/29 07:40:45;;;;;;;37.63;35.83;;;-0.70;99.90;;;;;;4194557;28;20037;-50
2021/11/29 07:42:47;;;;;;;36.85;34.78;;;-0.70;99.90;;;;;;4177450;28;20064;-51
2021/11/29 07:44:49;;;;;;;47.83;44.22;;;-0.60;99.90;;;;;;4193630;28;20086;-51
2021/11/29 07:46:52;;;;;;;38.67;36.50;;;-0.60;99.90;;;;;;4194657;28;20071;-51
2021/11/29 07:48:55;;;;;;;35.25;33.25;;;-0.50;99.90;;;;;;4193996;28;20040;-51
2021/11/29 07:50:57;;;;;;;39.33;36.53;;;-0.50;99.90;;;;;;4191995;28;20051;-51
2021/11/29 07:53:00;;;;;;;37.97;35.30;;;-0.50;99.90;;;;;;4191043;28;20060;-49
2021/11/29 07:55:07;;;;;;;37.03;34.10;;;-0.50;99.90;;;;;;4194279;28;20036;-50
2021/11/29 07:57:11;;;;;;;40.75;37.83;;;-0.50;99.90;;;;;;4194563;28;20045;-50
2021/11/29 07:59:13;;;;;;;41.75;38.47;;;-0.50;99.90;;;;;;4195479;28;20036;-51
2021/11/29 08:01:16;;;;;;;41.55;38.53;;;-0.60;99.90;;;;;;4194333;28;20032;-51
2021/11/29 08:03:18;;;;;;;;;;;-0.60;99.90;;;;;;4194816;28;20107;-51
2021/11/29 08:05:23;;;;;;;41.72;37.70;;;-0.40;99.90;;;;;;4194509;28;19921;-50
2021/11/29 08:07:26;;;;;;;53.38;48.70;;;-0.40;99.90;;;;;;4195419;28;20454;-52
2021/11/29 08:09:28;;;;;;;50.38;46.35;;;-0.50;99.90;;;;;;4194497;28;20143;-49
2021/11/29 08:11:30;;;;;;;45.90;42.40;;;-0.40;99.90;;;;;;4194406;28;20075;-51
2021/11/29 08:13:32;;;;;;;45.78;42.25;;;-0.50;99.90;;;;;;4192545;28;20129;-51
2021/11/29 08:15:39;;;;;;;45.60;41.97;;;-0.40;99.90;;;;;;4194151;28;20036;-51
2021/11/29 08:17:41;;;;;;;51.13;46.83;;;-0.40;99.90;;;;;;4194233;28;20086;-50
2021/11/29 08:19:43;;;;;;;44.28;40.90;;;-0.40;99.90;;;;;;4193565;28;20045;-51
2021/11/29 08:21:45;;;;;;;41.03;37.85;;;-0.40;99.90;;;;;;4194113;28;20028;-49
2021/11/29 08:23:47;;;;;;;35.20;32.20;;;-0.30;99.90;;;;;;4195084;28;20040;-52
2021/11/29 08:26:08;;;;;;;48.85;44.28;;;-0.20;99.90;;;;;;4192669;28;20553;-49
2021/11/29 08:28:11;;;;;;;;;;;-0.10;99.90;;;;;;4192427;28;20051;-50
2021/11/29 08:30:15;;;;;;;57.97;44.97;;;-0.10;99.90;;;;;;4194086;28;19928;-49
2021/11/29 08:32:18;;;;;;;50.22;45.42;;;-0.10;99.90;;;;;;4195250;28;20037;-49
2021/11/29 08:34:20;;;;;;;46.65;42.03;;;-0.10;99.90;;;;;;4194162;28;20040;-50
2021/11/29 08:36:22;;;;;;;41.17;37.30;;;-0.10;99.90;;;;;;4191563;28;20033;-52
2021/11/29 08:38:24;;;;;;;37.60;33.97;;;-0.10;99.90;;;;;;4194017;28;20033;-51
2021/11/29 08:40:30;;;;;;;40.22;37.10;;;0.00;99.90;;;;;;4192189;28;20036;-49
2021/11/29 08:42:32;;;;;;;37.13;34.00;;;0.00;99.90;;;;;;4193513;28;20070;-51
2021/11/29 08:44:35;;;;;;;39.42;33.80;;;0.00;99.90;;;;;;4192468;28;20033;-50
2021/11/29 08:46:38;;;;;;;38.75;34.70;;;0.00;99.90;;;;;;4193770;28;20048;-52
2021/11/29 08:48:40;;;;;;;38.10;35.10;;;0.00;99.90;;;;;;4164612;28;20053;-50
2021/11/29 08:50:50;;;;;;;14.77;13.93;;;0.10;99.90;;;;;;4165804;28;20119;-51
2021/11/29 08:52:52;;;;;;;22.90;21.23;;;0.20;99.90;;;;;;4177252;28;20040;-52
2021/11/29 08:54:54;;;;;;;31.13;25.30;;;0.20;99.90;;;;;;4177167;28;20040;-51
2021/11/29 08:56:56;;;;;;;17.00;15.80;;;0.30;99.90;;;;;;4173264;28;20462;-51
2021/11/29 08:58:59;;;;;;;;;;;0.40;99.90;;;;;;4165669;28;20752;-51
2021/11/29 09:01:02;;;;;;;18.70;17.23;;;0.40;99.90;;;;;;4177007;28;19920;-50
2021/11/29 09:03:07;;;;;;;13.52;12.93;;;0.40;99.90;;;;;;4176113;28;20044;-49
2021/11/29 09:05:10;;;;;;;13.93;13.18;;;0.50;99.90;;;;;;4174996;28;20045;-49
2021/11/29 09:07:13;;;;;;;19.52;18.13;;;0.60;99.90;;;;;;4175974;28;20554;-50
2021/11/29 09:09:15;;;;;;;20.38;18.70;;;0.60;99.90;;;;;;4176355;28;20103;-52
2021/11/29 09:11:17;;;;;;;25.67;23.27;;;0.70;99.90;;;;;;4177261;28;20048;-52
2021/11/29 09:13:20;;;;;;;35.15;18.73;;;0.80;99.90;;;;;;4174073;28;20033;-53
2021/11/29 09:15:22;;;;;;;17.75;16.02;;;0.90;99.90;;;;;;4171894;28;20037;-53
2021/11/29 09:17:26;;;;;;;;;;;0.90;99.90;;;;;;4178045;28;20033;-53
2021/11/29 09:19:28;;;;;;;14.77;13.65;;;0.90;99.90;;;;;;4176121;28;19925;-52
2021/11/29 09:21:31;;;;;;;34.85;28.50;;;0.80;99.90;;;;;;4175844;28;20082;-53
2021/11/29 09:23:34;;;;;;;25.35;23.55;;;0.80;99.90;;;;;;4177249;28;20124;-53
2021/11/29 09:25:41;;;;;;;27.67;25.42;;;0.90;99.90;;;;;;4174819;28;20041;-52
2021/11/29 09:27:44;;;;;;;29.20;27.27;;;1.00;99.90;;;;;;4175550;28;20072;-54
2021/11/29 09:29:49;;;;;;;17.60;16.55;;;1.00;99.90;;;;;;4177380;28;20066;-54
2021/11/29 09:31:51;;;;;;;20.70;19.30;;;1.20;99.90;;;;;;4177007;28;20064;-54
2021/11/29 09:33:54;;;;;;;19.70;18.70;;;1.30;99.90;;;;;;4155246;28;20611;-54
2021/11/29 09:35:56;;;;;;;;;;;1.30;99.90;;;;;;4177909;28;20037;-54
2021/11/29 09:37:59;;;;;;;24.13;22.48;;;1.30;99.90;;;;;;4174691;28;20396;-54
2021/11/29 09:40:04;;;;;;;18.33;17.15;;;1.30;99.90;;;;;;4177193;28;20098;-53
2021/11/29 09:42:07;;;;;;;17.23;16.33;;;1.40;99.90;;;;;;4175526;28;20029;-54
2021/11/29 09:44:09;;;;;;;22.67;21.08;;;1.30;99.90;;;;;;4169783;28;20036;-54
2021/11/29 09:46:11;;;;;;;15.68;14.68;;;1.40;99.90;;;;;;4175010;28;20075;-53
2021/11/29 09:48:14;;;;;;;12.95;12.48;;;1.60;99.90;;;;;;4165039;28;20060;-54
2021/11/29 09:50:17;;;;;;;12.77;12.15;;;1.60;99.90;;;;;;4191045;28;20083;-54
2021/11/29 09:52:20;;;;;;;13.68;12.55;;;1.70;99.90;;;;;;4192382;28;20044;-51
2021/11/29 09:54:22;;;;;;;;;;;1.80;99.90;;;;;;4193893;28;20052;-53
2021/11/29 09:56:24;;;;;;;9.05;8.75;;;2.00;99.90;;;;;;4193467;28;20446;-54
2021/11/29 09:58:28;;;;;;;7.93;7.63;;;2.10;99.90;;;;;;4191316;28;20404;-53
2021/11/29 10:00:34;;;;;;;5.80;5.70;;;2.20;99.90;;;;;;4192062;28;20044;-54
2021/11/29 10:02:36;;;;;;;16.90;14.25;;;2.50;99.90;;;;;;4192157;28;20498;-53
2021/11/29 10:04:49;;;;;;;23.33;21.17;;;2.70;99.90;;;;;;4193573;28;20040;-54
2021/11/29 10:06:55;;;;;;;;;;;2.90;99.90;;;;;;4193776;28;20040;-53
2021/11/29 10:08:58;;;;;;;13.40;12.60;;;2.90;99.90;;;;;;4195963;28;20428;-54
2021/11/29 10:11:06;;;;;;;9.60;9.30;;;3.00;99.90;;;;;;4195341;28;20040;-54
2021/11/29 10:13:08;;;;;;;9.18;8.82;;;3.10;99.90;;;;;;4190154;28;20493;-53
2021/11/29 10:15:20;;;;;;;14.15;13.05;;;3.10;99.90;;;;;;4193710;28;20032;-54
2021/11/29 10:17:25;;;;;;;21.07;19.53;;;3.00;99.90;;;;;;4197008;28;20080;-53
2021/11/29 10:19:27;;;;;;;15.05;13.68;;;3.10;99.90;;;;;;4193420;28;20041;-52
2021/11/29 10:21:29;;;;;;;12.00;11.45;;;3.30;99.90;;;;;;4195812;28;20483;-53
2021/11/29 10:23:39;;;;;;;10.82;10.02;;;3.50;99.90;;;;;;4195330;28;20471;-53
2021/11/29 10:25:43;;;;;;;7.72;7.55;;;3.70;99.90;;;;;;4196106;28;20045;-53
2021/11/29 10:27:46;;;;;;;5.35;5.25;;;3.70;99.90;;;;;;4194125;28;20454;-53
2021/11/29 10:29:55;;;;;;;5.22;5.22;;;3.80;99.90;;;;;;4196632;28;20065;-53